createdAt,value
2018-11-29T00:01:43.205Z,32.43
2018-11-29T00:06:45.533Z,35.40
2018-11-29T00:11:48.758Z,31.47
2018-11-29T00:16:51.065Z,31.30
2018-11-29T00:21:53.469Z,31.20
2018-11-29T00:26:55.765Z,32.97
2018-11-29T00:31:58.163Z,34.77
2018-11-29T00:37:00.472Z,33.87
2018-11-29T00:42:02.957Z,31.97
2018-11-29T00:47:05.454Z,30.80
2018-11-29T00:52:07.733Z,35.73
2018-11-29T00:57:10.098Z,30.87
2018-11-29T01:02:12.457Z,29.07
2018-11-29T01:07:14.777Z,30.33
2018-11-29T01:12:17.156Z,30.53
2018-11-29T01:17:19.652Z,28.20
2018-11-29T01:22:21.984Z,30.63
2018-11-29T01:27:24.304Z,27.50
2018-11-29T01:32:26.767Z,30.80
2018-11-29T01:37:29.147Z,26.67
2018-11-29T01:42:31.488Z,28.00
2018-11-29T01:47:33.804Z,25.20
2018-11-29T01:52:36.097Z,25.03
2018-11-29T01:57:38.469Z,27.90
2018-11-29T02:02:40.787Z,24.77
2018-11-29T02:07:43.117Z,24.00
2018-11-29T02:12:45.560Z,25.83
2018-11-29T02:17:47.898Z,23.97
2018-11-29T02:22:50.233Z,22.10
2018-11-29T02:27:52.538Z,22.47
2018-11-29T02:32:54.866Z,24.87
2018-11-29T02:37:57.173Z,20.60
2018-11-29T02:42:59.542Z,22.47
2018-11-29T02:48:01.838Z,21.37
2018-11-29T02:53:04.265Z,21.83
2018-11-29T02:58:06.631Z,25.67
2018-11-29T03:03:08.928Z,20.93
2018-11-29T03:08:11.242Z,20.67
2018-11-29T03:13:13.569Z,21.63
2018-11-29T03:18:16.633Z,18.63
2018-11-29T03:23:18.941Z,20.47
2018-11-29T03:28:21.269Z,19.53
2018-11-29T03:33:23.565Z,20.97
2018-11-29T03:38:26.742Z,21.17
2018-11-29T03:43:29.117Z,19.87
2018-11-29T03:48:31.407Z,19.03
2018-11-29T03:53:33.769Z,20.10
2018-11-29T03:58:36.183Z,17.73
2018-11-29T04:03:38.649Z,19.27
2018-11-29T04:08:42.190Z,18.97
2018-11-29T04:13:44.710Z,16.87
2018-11-29T04:18:49.118Z,18.07
2018-11-29T04:23:50.624Z,19.23
2018-11-29T04:28:52.980Z,17.17
2018-11-29T04:33:55.369Z,17.50
2018-11-29T04:38:58.788Z,17.87
2018-11-29T04:44:01.311Z,17.70
2018-11-29T04:49:04.239Z,17.80
2018-11-29T04:54:07.325Z,15.87
2018-11-29T04:59:09.664Z,17.93
2018-11-29T05:04:12.001Z,14.93
2018-11-29T05:09:14.347Z,16.03
2018-11-29T05:14:16.727Z,14.40
2018-11-29T05:19:19.115Z,15.70
2018-11-29T05:24:21.431Z,15.40
2018-11-29T05:29:23.737Z,14.93
2018-11-29T05:34:26.080Z,12.77
2018-11-29T05:39:28.411Z,14.93
2018-11-29T05:44:30.841Z,15.43
2018-11-29T05:49:33.248Z,13.07
2018-11-29T05:54:35.631Z,15.53
2018-11-29T05:59:37.970Z,13.20
2018-11-29T06:04:40.285Z,14.30
2018-11-29T06:09:42.630Z,13.00
2018-11-29T06:14:46.074Z,15.50
2018-11-29T06:19:48.383Z,12.50
2018-11-29T06:24:50.706Z,12.07
2018-11-29T06:29:53.020Z,13.57
2018-11-29T06:34:55.721Z,12.70
2018-11-29T06:39:58.045Z,12.47
2018-11-29T06:45:00.445Z,13.97
2018-11-29T06:50:03.179Z,14.33
2018-11-29T06:55:10.158Z,15.93
2018-11-29T07:00:13.899Z,14.90
2018-11-29T07:05:16.277Z,12.73
2018-11-29T07:10:24.388Z,13.00
2018-11-29T07:15:26.908Z,14.10
2018-11-29T07:20:29.259Z,13.40
2018-11-29T07:25:31.594Z,11.43
2018-11-29T07:30:33.986Z,12.93
2018-11-29T07:35:36.508Z,13.00
2018-11-29T07:40:38.821Z,11.63
2018-11-29T07:45:41.201Z,12.37
2018-11-29T07:50:43.514Z,16.60
2018-11-29T07:55:45.907Z,11.57
2018-11-29T08:00:48.221Z,11.53
2018-11-29T08:05:50.623Z,11.97
2018-11-29T08:10:52.952Z,13.43
2018-11-29T08:15:55.340Z,13.80
2018-11-29T08:20:57.679Z,12.60
2018-11-29T08:26:00.107Z,12.97
2018-11-29T08:31:02.436Z,11.50
2018-11-29T08:36:04.819Z,11.87
2018-11-29T08:41:07.157Z,11.33
2018-11-29T08:46:09.556Z,12.80
2018-11-29T08:51:11.864Z,11.13
2018-11-29T08:56:14.167Z,12.33
2018-11-29T09:01:16.501Z,13.63
2018-11-29T09:06:18.789Z,12.67
2018-11-29T09:11:21.274Z,10.87
2018-11-29T09:16:23.626Z,12.90
2018-11-29T09:21:25.951Z,12.27
2018-11-29T09:26:28.245Z,14.20
2018-11-29T09:31:30.531Z,11.23
2018-11-29T09:36:32.814Z,13.47
2018-11-29T09:41:35.492Z,11.17
2018-11-29T09:46:37.869Z,11.07
2018-11-29T09:51:40.227Z,11.33
2018-11-29T09:56:42.564Z,13.57
2018-11-29T10:01:44.886Z,12.37
2018-11-29T10:06:47.211Z,11.60
2018-11-29T10:11:49.500Z,11.27
2018-11-29T10:16:51.835Z,10.80
2018-11-29T10:21:54.217Z,10.33
2018-11-29T10:26:56.550Z,10.47
2018-11-29T10:31:59.299Z,11.53
2018-11-29T10:37:01.195Z,11.73
2018-11-29T10:42:03.539Z,12.03
2018-11-29T10:47:05.863Z,13.20
2018-11-29T10:52:08.266Z,10.90
2018-11-29T10:57:10.602Z,9.27
2018-11-29T11:02:12.965Z,9.83
2018-11-29T11:07:15.685Z,13.73
2018-11-29T11:12:18.743Z,10.70
2018-11-29T11:17:20.429Z,9.43
2018-11-29T11:22:22.734Z,9.90
2018-11-29T11:27:25.035Z,9.53
2018-11-29T11:32:27.346Z,13.10
2018-11-29T11:37:29.664Z,10.03
2018-11-29T11:42:32.061Z,9.63
2018-11-29T11:47:34.435Z,9.10
2018-11-29T11:52:36.755Z,14.07
2018-11-29T11:57:39.113Z,11.40
2018-11-29T12:02:41.655Z,8.90
2018-11-29T12:07:43.953Z,10.60
2018-11-29T12:12:46.296Z,9.57
2018-11-29T12:17:48.658Z,10.03
2018-11-29T12:22:50.936Z,10.97
2018-11-29T12:27:53.236Z,12.77
2018-11-29T12:32:58.754Z,9.60
2018-11-29T12:38:01.041Z,9.93
2018-11-29T12:43:03.407Z,9.57
2018-11-29T12:48:05.793Z,10.50
2018-11-29T12:53:08.115Z,10.87
2018-11-29T12:58:10.414Z,8.67
2018-11-29T13:03:12.703Z,8.93
2018-11-29T13:08:14.979Z,11.20
2018-11-29T13:13:17.289Z,9.03
2018-11-29T13:18:19.728Z,9.63
2018-11-29T13:23:22.111Z,11.87
2018-11-29T13:28:24.405Z,9.73
2018-11-29T13:33:26.712Z,9.30
2018-11-29T13:38:29.034Z,10.40
2018-11-29T13:43:31.315Z,9.47
2018-11-29T13:48:33.656Z,11.10
2018-11-29T13:53:36.056Z,13.40
2018-11-29T13:58:38.373Z,12.90
2018-11-29T14:03:40.692Z,10.57
2018-11-29T14:08:43.010Z,10.73
2018-11-29T14:13:45.316Z,11.00
2018-11-29T14:18:47.664Z,10.57
2018-11-29T14:23:49.952Z,10.40
2018-11-29T14:28:52.259Z,12.63
2018-11-29T14:33:54.562Z,10.83
2018-11-29T14:38:56.856Z,10.80
2018-11-29T14:43:59.163Z,12.60
2018-11-29T14:49:01.654Z,11.93
2018-11-29T14:54:04.551Z,10.27
2018-11-29T14:59:06.913Z,10.60
2018-11-29T15:04:09.242Z,12.43
2018-11-29T15:09:11.576Z,12.23
2018-11-29T15:14:17.862Z,12.77
2018-11-29T15:19:16.347Z,11.90
2018-11-29T15:24:18.635Z,10.93
2018-11-29T15:29:21.752Z,10.37
2018-11-29T15:39:49.195Z,14.67
2018-11-29T15:44:51.546Z,14.83
2018-11-29T15:49:53.904Z,13.00
2018-11-29T15:54:56.268Z,14.37
2018-11-29T15:59:58.559Z,13.47
2018-11-29T16:05:00.835Z,15.00
2018-11-29T16:10:03.470Z,15.37
2018-11-29T16:15:08.376Z,18.23
2018-11-29T16:20:12.993Z,17.60
2018-11-29T16:25:15.327Z,17.37
2018-11-29T16:30:25.702Z,16.23
2018-11-29T16:35:28.029Z,17.87
2018-11-29T16:40:30.342Z,16.70
2018-11-29T16:45:32.692Z,18.03
2018-11-29T16:50:35.921Z,14.83
2018-11-29T16:55:38.330Z,16.23
2018-11-29T17:00:40.658Z,18.83
2018-11-29T17:05:42.988Z,18.87
2018-11-29T17:10:45.883Z,19.70
2018-11-29T17:15:48.808Z,20.33
2018-11-29T17:20:51.158Z,19.83
2018-11-29T17:25:53.444Z,20.97
2018-11-29T17:30:55.748Z,22.90
2018-11-29T17:35:58.021Z,20.90
2018-11-29T17:41:00.443Z,21.00
2018-11-29T17:46:03.745Z,22.07
2018-11-29T17:51:06.141Z,22.50
2018-11-29T17:56:08.545Z,22.43
2018-11-29T18:01:11.543Z,24.37
2018-11-29T18:06:13.867Z,23.40
2018-11-29T18:11:16.149Z,22.57
2018-11-29T18:16:18.569Z,27.30
2018-11-29T18:21:20.960Z,28.60
2018-11-29T18:26:23.273Z,28.90
2018-11-29T18:31:25.566Z,23.73
2018-11-29T18:36:28.005Z,28.47
2018-11-29T18:41:30.296Z,27.83
2018-11-29T18:46:32.607Z,31.07
2018-11-29T18:51:35.037Z,25.53
2018-11-29T18:56:37.380Z,29.77
2018-11-29T19:01:39.701Z,31.30
2018-11-29T19:06:42.082Z,29.07
2018-11-29T19:11:44.493Z,26.97
2018-11-29T19:16:46.852Z,28.20
2018-11-29T19:21:49.266Z,27.17
2018-11-29T19:26:51.723Z,28.17
2018-11-29T19:31:54.064Z,29.17
2018-11-29T19:36:56.385Z,26.33
2018-11-29T19:41:58.701Z,27.70
2018-11-29T19:47:01.076Z,27.63
2018-11-29T19:52:03.465Z,27.80
2018-11-29T19:57:05.794Z,30.07
2018-11-29T20:02:08.091Z,28.90
2018-11-29T20:07:10.412Z,25.27
2018-11-29T20:12:12.718Z,27.67
2018-11-29T20:17:15.827Z,25.50
2018-11-29T20:22:18.362Z,28.50
2018-11-29T20:27:22.709Z,25.80
2018-11-29T20:32:26.155Z,28.60
2018-11-29T20:37:28.971Z,24.60
2018-11-29T20:42:31.430Z,25.57
2018-11-29T20:47:33.743Z,24.87
2018-11-29T20:52:36.228Z,24.97
2018-11-29T20:57:38.552Z,24.63
2018-11-29T21:02:41.145Z,26.07
2018-11-29T21:07:44.821Z,28.30
2018-11-29T21:12:47.360Z,24.43
2018-11-29T21:17:50.704Z,28.13
2018-11-29T21:22:53.165Z,26.67
2018-11-29T21:27:55.472Z,26.77
2018-11-29T21:32:57.872Z,28.40
2018-11-29T21:38:04.261Z,25.37
2018-11-29T21:43:06.540Z,26.87
2018-11-29T21:48:08.925Z,24.77
2018-11-29T21:53:11.303Z,28.30
2018-11-29T21:58:13.574Z,26.03
2018-11-29T22:03:16.119Z,25.83
2018-11-29T22:08:18.578Z,27.30
2018-11-29T22:13:20.839Z,27.90
2018-11-29T22:18:24.373Z,28.57
2018-11-29T22:23:26.727Z,25.87
2018-11-29T22:28:29.482Z,28.07
2018-11-29T22:33:31.784Z,27.07
2018-11-29T22:38:34.073Z,25.93
2018-11-29T22:43:36.325Z,30.27
2018-11-29T22:48:38.597Z,28.13
2018-11-29T22:53:41.315Z,28.50
2018-11-29T22:58:43.580Z,29.00
2018-11-29T23:03:45.897Z,26.90
2018-11-29T23:08:50.563Z,27.17
2018-11-29T23:13:52.889Z,25.37
2018-11-29T23:18:55.171Z,31.63
2018-11-29T23:23:57.530Z,26.23
2018-11-29T23:29:00.044Z,28.33
2018-11-29T23:34:02.377Z,28.67
2018-11-29T23:39:06.419Z,29.03
2018-11-29T23:44:08.796Z,26.00
2018-11-29T23:49:11.482Z,25.63
2018-11-29T23:54:13.939Z,26.33
2018-11-29T23:59:16.292Z,24.27
